Latest Weather Observations for Banana Bank

IDQ60801

Issued at 1:22 am EST Saturday 29 February 2020 (issued every 10 minutes, with the page automatically refreshed every 10 minutes)

About weather observations | Map of weather stations | Latest weather observations for QLD | Other Formats
Station Details ID: 040925 Name: BANANA BANK NORTH BEACON Lat: -27.53 Lon: 153.33 Height: 7.0 m
Data from the previous 72 hours. | See also: Recent months at Banana Bank
Date/Time
EST
Temp
°C
App
Temp
°C
Dew
Point
°C
Rel
Hum
%
Delta-T
°C
Wind Press
QNH
hPa
Press
MSL
hPa
Rain since
9am
mm
Dir  Spd
km/h
Gust
km/h
Spd
kts
Gust
kts
29/01:00am - - - - - S 22 24 12 13 - - -
29/12:30am - - - - - S 22 28 12 15 - - -
29/12:00am - - - - - S 17 22 9 12 - - -
 
Date/Time
EST
Temp
°C
App
Temp
°C
Dew
Point
°C
Rel
Hum
%
Delta-T
°C
Wind Press
QNH
hPa
Press
MSL
hPa
Rain since
9am
mm
Dir  Spd
km/h
Gust
km/h
Spd
kts
Gust
kts
28/11:30pm - - - - - SSE 19 22 10 12 - - -
28/11:00pm - - - - - SSE 19 24 10 13 - - -
28/10:30pm - - - - - SSE 19 24 10 13 - - -
28/10:00pm - - - - - SE 20 26 11 14 - - -
28/09:30pm - - - - - SE 15 20 8 11 - - -
28/09:00pm - - - - - SE 17 19 9 10 - - -
28/08:30pm - - - - - SE 17 20 9 11 - - -
28/08:00pm - - - - - SE 22 26 12 14 - - -
28/07:30pm - - - - - SE 20 24 11 13 - - -
28/07:00pm - - - - - SE 19 22 10 12 - - -
28/06:30pm - - - - - SE 17 20 9 11 - - -
28/06:00pm - - - - - ESE 15 19 8 10 - - -
28/05:30pm - - - - - ESE 17 20 9 11 - - -
28/05:00pm - - - - - ESE 20 24 11 13 - - -
28/04:30pm - - - - - ESE 20 24 11 13 - - -
28/04:00pm - - - - - ESE 22 26 12 14 - - -
28/03:30pm - - - - - ESE 20 24 11 13 - - -
28/03:00pm - - - - - SE 7 9 4 5 - - -
28/02:30pm - - - - - ESE 9 13 5 7 - - -
28/02:00pm - - - - - ESE 11 15 6 8 - - -
28/01:30pm - - - - - ESE 9 13 5 7 - - -
28/01:00pm - - - - - ESE 11 13 6 7 - - -
28/12:30pm - - - - - ESE 6 7 3 4 - - -
28/12:00pm - - - - - SSE 4 6 2 3 - - -
28/11:30am - - - - - S 6 7 3 4 - - -
28/11:00am - - - - - SSW 2 4 1 2 - - -
28/10:30am - - - - - CALM 0 0 0 0 - - -
28/10:00am - - - - - CALM 0 0 0 0 - - -
28/09:30am - - - - - SSW 4 6 2 3 - - -
28/09:00am - - - - - SSE 6 7 3 4 - - -
28/08:30am - - - - - SE 7 9 4 5 - - -
28/08:00am - - - - - SSE 11 13 6 7 - - -
28/07:30am - - - - - SSW 13 15 7 8 - - -
28/07:00am - - - - - SSW 17 19 9 10 - - -
28/06:30am - - - - - SW 13 19 7 10 - - -
28/06:00am - - - - - SSW 11 13 6 7 - - -
28/05:30am - - - - - SSW 15 17 8 9 - - -
28/05:00am - - - - - SSW 17 19 9 10 - - -
28/04:30am - - - - - SSW 17 22 9 12 - - -
28/04:00am - - - - - SSW 15 19 8 10 - - -
28/03:30am - - - - - SSW 11 13 6 7 - - -
28/03:00am - - - - - SSW 9 13 5 7 - - -
28/02:30am - - - - - SW 11 13 6 7 - - -
28/02:00am - - - - - SSW 13 15 7 8 - - -
28/01:30am - - - - - SW 9 11 5 6 - - -
28/01:00am - - - - - SW 6 7 3 4 - - -
28/12:30am - - - - - SW 4 7 2 4 - - -
28/12:00am - - - - - SSW 11 11 6 6 - - -
 
Date/Time
EST
Temp
°C
App
Temp
°C
Dew
Point
°C
Rel
Hum
%
Delta-T
°C
Wind Press
QNH
hPa
Press
MSL
hPa
Rain since
9am
mm
Dir  Spd
km/h
Gust
km/h
Spd
kts
Gust
kts
27/11:30pm - - - - - SSW 11 11 6 6 - - -
27/11:00pm - - - - - SSW 11 13 6 7 - - -
27/10:30pm - - - - - CALM 0 0 0 0 - - -
27/10:00pm - - - - - WNW 6 7 3 4 - - -
27/09:30pm - - - - - E 7 9 4 5 - - -
27/09:00pm - - - - - SSE 6 9 3 5 - - -
27/08:30pm - - - - - SSE 11 15 6 8 - - -
27/08:00pm - - - - - S 9 11 5 6 - - -
27/07:30pm - - - - - S 11 13 6 7 - - -
27/07:00pm - - - - - S 4 7 2 4 - - -
27/06:30pm - - - - - SSE 11 13 6 7 - - -
27/06:00pm - - - - - SE 13 17 7 9 - - -
27/05:30pm - - - - - E 15 20 8 11 - - -
27/05:00pm - - - - - E 11 13 6 7 - - -
27/04:30pm - - - - - E 22 26 12 14 - - -
27/04:00pm - - - - - SE 19 22 10 12 - - -
27/03:30pm - - - - - ESE 11 15 6 8 - - -
27/03:00pm - - - - - SE 13 19 7 10 - - -
27/02:30pm - - - - - E 15 17 8 9 - - -
27/02:00pm - - - - - E 24 28 13 15 - - -
27/01:30pm - - - - - SE 17 22 9 12 - - -
27/01:00pm - - - - - NE 15 20 8 11 - - -
27/12:30pm - - - - - NNE 9 13 5 7 - - -
27/12:00pm - - - - - ENE 13 15 7 8 - - -
27/11:30am - - - - - NW 9 17 5 9 - - -
27/11:05am - - - - - W 19 41 10 22 - - -
27/11:00am - - - - - NW 11 15 6 8 - - -
27/10:30am - - - - - NNW 11 13 6 7 - - -
27/10:00am - - - - - N 13 15 7 8 - - -
27/09:30am - - - - - N 6 7 3 4 - - -
27/09:00am - - - - - N 9 11 5 6 - - -
27/08:30am - - - - - N 9 13 5 7 - - -
27/08:00am - - - - - NW 4 6 2 3 - - -
27/07:30am - - - - - CALM 0 0 0 0 - - -
27/07:00am - - - - - SSW 6 6 3 3 - - -
27/06:30am - - - - - SW 6 7 3 4 - - -
27/06:00am - - - - - WSW 9 13 5 7 - - -
27/05:30am - - - - - WNW 11 13 6 7 - - -
27/05:00am - - - - - NW 11 13 6 7 - - -
27/04:30am - - - - - NNW 11 13 6 7 - - -
27/04:00am - - - - - NE 15 17 8 9 - - -
27/03:30am - - - - - ENE 19 22 10 12 - - -
27/03:00am - - - - - ENE 17 19 9 10 - - -
27/02:30am - - - - - E 17 20 9 11 - - -
27/02:00am - - - - - SE 11 20 6 11 - - -
27/01:30am - - - - - S 6 7 3 4 - - -
27/01:00am - - - - - S 7 9 4 5 - - -
27/12:30am - - - - - WSW 6 6 3 3 - - -
27/12:00am - - - - - W 6 6 3 3 - - -
 
Date/Time
EST
Temp
°C
App
Temp
°C
Dew
Point
°C
Rel
Hum
%
Delta-T
°C
Wind Press
QNH
hPa
Press
MSL
hPa
Rain since
9am
mm
Dir  Spd
km/h
Gust
km/h
Spd
kts
Gust
kts
26/11:30pm - - - - - NW 7 9 4 5 - - -
26/11:00pm - - - - - CALM 0 0 0 0 - - -
26/10:30pm - - - - - W 4 4 2 2 - - -
26/10:00pm - - - - - NW 7 9 4 5 - - -
26/09:30pm - - - - - NW 6 6 3 3 - - -
26/09:00pm - - - - - NW 4 6 2 3 - - -
26/08:30pm - - - - - N 6 7 3 4 - - -
26/08:00pm - - - - - NNE 9 15 5 8 - - -
26/07:30pm - - - - - N 20 26 11 14 - - -
26/07:00pm - - - - - N 17 20 9 11 - - -
26/06:30pm - - - - - NNE 19 20 10 11 - - -
26/06:00pm - - - - - NNE 15 19 8 10 - - -
26/05:30pm - - - - - NNE 15 17 8 9 - - -
26/05:00pm - - - - - NNE 15 17 8 9 - - -
26/04:30pm - - - - - NE 15 19 8 10 - - -
26/04:00pm - - - - - NNE 20 24 11 13 - - -
26/03:30pm - - - - - NNE 17 20 9 11 - - -
26/03:00pm - - - - - NNE 13 17 7 9 - - -
26/02:30pm - - - - - CALM 0 0 0 0 - - -
26/02:00pm - - - - - ENE 7 9 4 5 - - -
26/01:30pm - - - - - E 11 11 6 6 - - -
26/01:00pm - - - - - ENE 11 15 6 8 - - -
26/12:30pm - - - - - CALM 0 0 0 0 - - -
26/12:00pm - - - - - CALM 0 0 0 0 - - -
26/11:30am - - - - - CALM 0 0 0 0 - - -
26/11:00am - - - - - SSE 6 7 3 4 - - -
26/10:30am - - - - - SSE 7 9 4 5 - - -
26/10:00am - - - - - S 7 9 4 5 - - -
26/09:30am - - - - - SSW 9 11 5 6 - - -
26/09:00am - - - - - SSW 11 13 6 7 - - -
26/08:30am - - - - - S 9 13 5 7 - - -
26/08:00am - - - - - S 11 13 6 7 - - -
26/07:30am - - - - - S 11 13 6 7 - - -
26/07:00am - - - - - SSE 17 20 9 11 - - -
26/06:30am - - - - - S 13 15 7 8 - - -
26/06:00am - - - - - SSE 15 19 8 10 - - -
26/05:30am - - - - - S 13 17 7 9 - - -
26/05:00am - - - - - S 17 20 9 11 - - -
26/04:30am - - - - - S 17 19 9 10 - - -
26/04:00am - - - - - SSE 15 17 8 9 - - -
26/03:30am - - - - - S 11 15 6 8 - - -
26/03:00am - - - - - S 13 17 7 9 - - -
26/02:30am - - - - - S 17 22 9 12 - - -
26/02:00am - - - - - S 15 17 8 9 - - -
26/01:30am - - - - - SSW 15 19 8 10 - - -

Other formats

Comma delimited format used in spreadsheet applications
http://www.bom.gov.au/fwo/IDQ60801/IDQ60801.94591.axf

JavaScript Object Notation format (JSON) in row-major order
http://www.bom.gov.au/fwo/IDQ60801/IDQ60801.94591.json

Data quality

Most of these data are generated automatically and are frequently updated. Quality checks on data are not normally performed. It is possible for incorrect values to appear. Refer to information at About Latest Weather Observations and please check the disclaimer before using these data.